首页
METAR-TAF:

METAR-TAF

机场 :

直布羅陀機場

直布罗陀, 直布罗陀

纬度: 36-09N, 经度: 005-21W, 海拔: 5米

当前天气观测

该预报发布于49分钟前的13:50 UTC
风速10节,风向东北
温度 21°C
湿度 88%
气压 1023 hPa
能見度: 9000
少量云层高于1200英尺
散云层高于3000英尺
阴天层高于12000英尺

METAR: LXGB 231350Z 05010KT 9000 HZ FEW012 SCT030 OVC120 21/19 Q1023 NOSIG

时间: 16:39 (14:39 UTC)

预报

该预报发布于4小时和9分钟前的10:30 UTC
预报有效从23日的 12点(UTC)到 23日的 21点(UTC)
风速14节,风向东转东北
能見度: 9000
少量云层高于1000英尺
散云层高于4000英尺
几率 40% :
短暂存在
从 23日的 12点(UTC)到 23日的 21点(UTC)
能見度: 7000
散云层高于2200英尺
阵雨
几率 30% :
短暂存在
从 23日的 12点(UTC)到 23日的 18点(UTC)
能見度: 4000
散云层高于1000英尺
多云层高于2000英尺, 积雨云.
大阵雨

TAF: LXGB 231030Z 2312/2321 07014KT 9000 HZ FEW010 SCT040 PROB40 TEMPO 2312/2321 7000 SHRA SCT022 PROB30 TEMPO 2312/2318 4000 +SHRA SCT010 BKN020CB

超过4000个机场的气象观测和天气预报(METAR&TAF报告)。

可查询的气象台以黄色和红色小点在地图上表示。

将鼠标移到小点上方,可查看气象台名称。

然后点击查看天气观测和预报。

如需切换地图:点击带黑十字的绿色按钮放大地图;点击带横线的绿色按钮缩小地图;或者点击绿色箭头查看邻近地区的地图。


METAR-TAF: